createdAt,value
2018-03-30T00:05:07.938Z,10.54
2018-03-30T00:10:58.789Z,7.1
2018-03-30T00:16:49.594Z,7.57
2018-03-30T00:22:40.409Z,11.18
2018-03-30T00:28:31.262Z,8.61
2018-03-30T00:34:22.048Z,10.74
2018-03-30T00:40:12.899Z,12.78
2018-03-30T00:46:03.747Z,8.64
2018-03-30T00:51:54.556Z,7.09
2018-03-30T00:57:45.346Z,8.07
2018-03-30T01:03:36.202Z,8.85
2018-03-30T01:09:27.024Z,9.44
2018-03-30T01:15:17.804Z,10.44
2018-03-30T01:21:08.649Z,7.65
2018-03-30T01:26:59.427Z,11.04
2018-03-30T01:32:50.317Z,9.58
2018-03-30T01:38:41.080Z,9.21
2018-03-30T01:44:31.901Z,9.05
2018-03-30T01:50:22.722Z,7.62
2018-03-30T01:56:13.589Z,12.69
2018-03-30T02:02:04.364Z,11.86
2018-03-30T02:07:55.262Z,6.75
2018-03-30T02:13:45.953Z,14.86
2018-03-30T02:19:36.845Z,6.77
2018-03-30T02:25:27.617Z,6.31
2018-03-30T02:31:18.393Z,8.77
2018-03-30T02:37:09.231Z,9.48
2018-03-30T02:43:00.064Z,6.97
2018-03-30T02:48:50.872Z,11.08
2018-03-30T02:54:41.687Z,9.03
2018-03-30T03:00:32.497Z,7.88
2018-03-30T03:06:23.343Z,12.2
2018-03-30T03:12:14.111Z,12.21
2018-03-30T03:18:04.957Z,11.63
2018-03-30T03:23:55.770Z,12.79
2018-03-30T03:29:46.618Z,11.06
2018-03-30T03:35:37.399Z,11.88
2018-03-30T03:41:28.197Z,15.69
2018-03-30T03:47:19.007Z,16.45
2018-03-30T03:53:09.964Z,9.72
2018-03-30T03:59:00.639Z,17.84
2018-03-30T04:04:51.450Z,16.55
2018-03-30T04:10:42.252Z,11.04
2018-03-30T04:16:33.099Z,11.98
2018-03-30T04:22:23.896Z,13.25
2018-03-30T04:28:14.706Z,20.77
2018-03-30T04:34:05.536Z,16.23
2018-03-30T04:39:56.331Z,17.3
2018-03-30T04:45:47.164Z,14.69
2018-03-30T04:51:37.931Z,13.95
2018-03-30T04:57:28.782Z,16.22
2018-03-30T05:03:19.573Z,17.54
2018-03-30T05:09:10.424Z,13.1
2018-03-30T05:15:01.243Z,15.55
2018-03-30T05:20:52.044Z,11.3
2018-03-30T05:26:42.829Z,16
2018-03-30T05:32:33.644Z,20.6
2018-03-30T05:38:24.441Z,15.74
2018-03-30T05:44:15.242Z,12.01
2018-03-30T05:50:06.085Z,10.62
2018-03-30T05:55:56.927Z,10.45
2018-03-30T06:01:47.683Z,8.02
2018-03-30T06:07:38.512Z,10.9
2018-03-30T06:13:29.358Z,14.56
2018-03-30T06:19:20.126Z,17.31
2018-03-30T06:25:10.913Z,15.88
2018-03-30T06:31:01.734Z,17.91
2018-03-30T06:36:52.572Z,13.59
2018-03-30T06:42:43.345Z,20.51
2018-03-30T06:48:34.226Z,17.9
2018-03-30T06:54:25.006Z,17.32
2018-03-30T07:00:15.835Z,14.15
2018-03-30T07:06:06.658Z,19.51
2018-03-30T07:11:57.443Z,18.88
2018-03-30T07:17:48.296Z,14.63
2018-03-30T07:23:39.149Z,29.01
2018-03-30T07:29:29.971Z,17.69
2018-03-30T07:35:20.750Z,25.49
2018-03-30T07:41:11.531Z,16.39
2018-03-30T07:47:02.370Z,14.41
2018-03-30T07:52:53.173Z,16.12
2018-03-30T07:58:44.041Z,15.96
2018-03-30T08:04:34.847Z,19.69
2018-03-30T08:10:25.690Z,16.95
2018-03-30T08:16:16.503Z,17.5
2018-03-30T08:22:07.335Z,19.27
2018-03-30T08:27:58.160Z,17.5
2018-03-30T08:33:48.939Z,14.98
2018-03-30T08:39:39.780Z,14.4
2018-03-30T08:45:30.673Z,12.19
2018-03-30T08:51:21.502Z,15.99
2018-03-30T08:57:12.368Z,18.27
2018-03-30T09:03:03.192Z,21.3
2018-03-30T09:08:54.048Z,14.99
2018-03-30T09:14:44.976Z,16.24
2018-03-30T09:20:35.770Z,15.57
2018-03-30T09:26:26.653Z,19.03
2018-03-30T09:32:17.596Z,15.84
2018-03-30T09:38:08.445Z,10.87
2018-03-30T09:43:59.308Z,13.49
2018-03-30T09:49:50.194Z,18.1
2018-03-30T09:55:41.107Z,12.8
2018-03-30T10:01:32.000Z,12.73
2018-03-30T10:07:22.852Z,9.12
2018-03-30T10:13:13.802Z,19.52
2018-03-30T10:19:04.611Z,12.49
2018-03-30T10:24:55.477Z,14.01
2018-03-30T10:30:46.384Z,10.57
2018-03-30T10:36:37.217Z,12.07
2018-03-30T10:42:28.110Z,13.19
2018-03-30T10:48:18.981Z,13.69
2018-03-30T10:54:09.841Z,9.65
2018-03-30T11:00:00.699Z,13.5
2018-03-30T11:05:51.579Z,14.56
2018-03-30T11:11:42.425Z,10.62
2018-03-30T11:17:33.294Z,10.39
2018-03-30T11:23:24.175Z,14.04
2018-03-30T11:29:15.015Z,12.4
2018-03-30T11:35:05.892Z,14.11
2018-03-30T11:40:56.731Z,7.8
2018-03-30T11:46:47.567Z,8.76
2018-03-30T11:52:38.426Z,13.13
2018-03-30T11:58:29.274Z,12.05
2018-03-30T12:04:20.231Z,8.09
2018-03-30T12:10:10.983Z,11.92
2018-03-30T12:16:01.892Z,4.96
2018-03-30T12:21:52.735Z,15.52
2018-03-30T12:27:43.581Z,11.93
2018-03-30T12:33:34.449Z,10.69
2018-03-30T12:39:25.319Z,6.38
2018-03-30T12:45:16.197Z,13.04
2018-03-30T12:51:07.066Z,14.35
2018-03-30T12:56:57.908Z,15.06
2018-03-30T13:02:48.756Z,12.86
2018-03-30T13:08:39.612Z,9.06
2018-03-30T13:14:30.478Z,12.82
2018-03-30T13:20:21.291Z,10.83
2018-03-30T13:26:12.175Z,14.31
2018-03-30T13:32:03.011Z,12.54
2018-03-30T13:37:53.861Z,11.3
2018-03-30T13:43:44.756Z,7.23
2018-03-30T13:49:35.601Z,7.67
2018-03-30T13:55:26.480Z,6.36
2018-03-30T14:01:17.369Z,7.17
2018-03-30T14:07:08.235Z,11.1
2018-03-30T14:12:59.060Z,7.54
2018-03-30T14:18:49.914Z,8.45
2018-03-30T14:24:40.866Z,16.15
2018-03-30T14:30:31.635Z,8.85
2018-03-30T14:36:22.547Z,8.58
2018-03-30T14:42:13.406Z,6.06
2018-03-30T14:48:04.271Z,7.82
2018-03-30T14:53:55.132Z,8.59
2018-03-30T14:59:46.008Z,4.66
2018-03-30T15:05:36.860Z,4.28
2018-03-30T15:11:27.737Z,11.31
2018-03-30T15:17:18.582Z,13.6
2018-03-30T15:23:09.469Z,9.16
2018-03-30T15:29:00.282Z,10.55
2018-03-30T15:34:51.173Z,7.43
2018-03-30T15:40:42.014Z,5.68
2018-03-30T15:46:32.876Z,6.49
2018-03-30T15:52:23.693Z,5.47
2018-03-30T15:58:14.585Z,6.87
2018-03-30T16:04:05.437Z,8.73
2018-03-30T16:09:56.291Z,10.31
2018-03-30T16:15:47.127Z,6.44
2018-03-30T16:21:37.979Z,8.09
2018-03-30T16:27:28.952Z,10.32
2018-03-30T16:33:19.671Z,16.31
2018-03-30T16:39:10.572Z,7.04
2018-03-30T16:45:01.417Z,6.15
2018-03-30T16:50:52.288Z,11.03
2018-03-30T16:56:43.164Z,15.5
2018-03-30T17:02:33.981Z,8.4
2018-03-30T17:08:24.787Z,13.91
2018-03-30T17:14:15.654Z,7.75
2018-03-30T17:20:06.475Z,7.07
2018-03-30T17:25:57.405Z,7.86
2018-03-30T17:31:48.189Z,12.5
2018-03-30T17:37:39.049Z,10.27
2018-03-30T17:43:29.951Z,6.81
2018-03-30T17:49:20.769Z,9.13
2018-03-30T17:55:11.571Z,8.98
2018-03-30T18:01:02.422Z,7.37
2018-03-30T18:06:53.279Z,12.19
2018-03-30T18:12:44.119Z,9.12
2018-03-30T18:18:34.955Z,10.18
2018-03-30T18:24:25.797Z,9.96
2018-03-30T18:30:16.682Z,7.32
2018-03-30T18:36:07.515Z,5.7
2018-03-30T18:41:58.295Z,7.43
2018-03-30T18:47:49.133Z,16.3
2018-03-30T18:53:39.961Z,20.67
2018-03-30T18:59:30.808Z,25.76
2018-03-30T19:05:21.743Z,13.14
2018-03-30T19:11:12.463Z,10.01
2018-03-30T19:17:03.303Z,5.44
2018-03-30T19:22:54.166Z,5.32
2018-03-30T19:28:44.989Z,7.17
2018-03-30T19:34:35.816Z,12.48
2018-03-30T19:40:26.676Z,14.58
2018-03-30T19:46:17.510Z,6.51
2018-03-30T19:52:08.332Z,8.36
2018-03-30T19:57:59.292Z,9.38
2018-03-30T20:03:50.007Z,6.72
2018-03-30T20:09:40.830Z,9.11
2018-03-30T20:15:31.678Z,3.46
2018-03-30T20:21:22.510Z,2.9
2018-03-30T20:27:13.312Z,3.55
2018-03-30T20:33:04.175Z,3.72
2018-03-30T20:38:54.942Z,4.09
2018-03-30T20:44:45.813Z,2.34
2018-03-30T20:50:36.640Z,2.6
2018-03-30T20:56:27.446Z,7.17
2018-03-30T21:02:18.326Z,2.72
2018-03-30T21:08:09.110Z,5.62
2018-03-30T21:13:59.957Z,2.59
2018-03-30T21:19:50.784Z,3.03
2018-03-30T21:25:41.591Z,1.81
2018-03-30T21:31:32.454Z,3.72
2018-03-30T21:37:23.241Z,2.86
2018-03-30T21:43:14.078Z,2.76
2018-03-30T21:49:04.888Z,4.15
2018-03-30T21:54:55.772Z,7.14
2018-03-30T22:00:46.542Z,2.51
2018-03-30T22:06:37.376Z,10.92
2018-03-30T22:12:28.249Z,4.74
2018-03-30T22:18:19.039Z,2.44
2018-03-30T22:24:09.821Z,4.39
2018-03-30T22:30:00.684Z,3.49
2018-03-30T22:35:51.486Z,4.31
2018-03-30T22:41:42.338Z,2.88
2018-03-30T22:47:33.196Z,3.29
2018-03-30T22:53:23.957Z,3.45
2018-03-30T22:59:14.815Z,2.82
2018-03-30T23:05:05.628Z,3.35
2018-03-30T23:10:56.451Z,6.01
2018-03-30T23:16:47.321Z,3.83
2018-03-30T23:22:38.086Z,6.82
2018-03-30T23:28:28.930Z,6.32
2018-03-30T23:34:19.732Z,7.51
2018-03-30T23:40:10.583Z,3.64
2018-03-30T23:46:01.372Z,3.83
2018-03-30T23:51:52.276Z,4.23
2018-03-30T23:57:43.089Z,4.75
